Angelica, Pennsylvania
Current Conditions -  °F | °C
As of 3:54 PM on Tuesday 21 Oct 2014 (Local Time) from KRDG Reporting Station
Scattered Clouds Scattered Clouds  
Wind Chill: 64°   Ceiling: Unl
Heat Index: 64°   Visibility: 10mi
Dew Point: 48°   Wind: 6mph
Humidity: 56%   Direction: 360°N
Pressure: 29.81"   Gusts: NA
Location:  40.2411°N, 75.9752°W
Report Text: KRDG 211954Z 36005KT 10SM FEW039 SCT085 18/09 A2981 RMK AO2 SLP098 T01780089
Loading
Personal Weather Stations






























Interactive Weather Map
Tropical Storm Tracking
New forecast layout! Learn more

10-Day Weather Forecast

Advertisements
Track Severe Weather on mobile